Airfield :
LOGIN :

Register | Disclaimer

   EN    FR    IT 

 










Legend :    VFR   Marginal VFR   IFR   Intensive IFR   Very Intensive IFR
Visi :
Ceiling :
>= 8 km
>= 3000ft
5 to 8 km
1000 to 3000 ft
1500m to 5 km
500 to 1000 ft
800 to 1500m
200 to 500 ft
< 800m
< 200 ft
Symbols :   Thunderstorms  Fog  Heavy snow  Heavy precipitations  Wind > 20 kt
SIGMETs :     Misc.  Thunderstorms  Icing  Turbulence  Mountain Waves  Volcanic Ashes






- Airport Elevation : 336 ft
- IATA code : GCI


EGJB - Guernsey

CURRENT METAR :
  • 182120Z 27019KT 9999 VCSH SCT015 09/07 Q1021

EXPIRED METARs :
  • 182050Z 27020KT 9999 VCSH FEW008 FEW012CB 09/07 Q1021
  • 182020Z 26022KT 9999 VCSH FEW008 SCT012CB 08/07 Q1021
  • 181950Z 27020G30KT 5000 SHRA FEW008 BKN012CB 07/07 Q1021 RESHRA
  • 181920Z 25023G33KT 8000 SHRA BKN013CB 08/07 Q1022
  • 181850Z 25021G31KT 9999 VCSH FEW015CB SCT018 09/07 Q1022

TAF TAF EGJB
Valid from the 18 at 21:00 until the 19 at 06:00 UTC


182000Z 1821/1906 26023KT 9999 FEW015 SCT025
BECMG 1821/1823 29021KT
PROB30
TEMPO 1821/1822 27024G36KT 3000 +SHRAGS BKN013CB
PROB40
TEMPO 1821/1906 8000 SHRA BKN015
BECMG 1903/1906 28011KT
ATIS : +44 1481 238 957



MET'MAP, your aeronautical weather chart ! - Copyright ORBIFLY December 2007 - Disclaimer

ORBIFLY MET'MAP TEAM :

Programming & Development : Alexandra Zaïnal
Concept & original design : Baudouin d'Aumeries
Assistance for programming : Marc-Olivier Méhu
Technical & hardware support : Manuel Goepfert

Contact : metmap@orbifly.com




SOURCES & CREDITS :

   NOAA